sensor_id;sensor_type;location;lat;lon;timestamp;temperature;humidity
11188;DHT22;5650;52.700;7.306;2022-11-11T00:01:25;10.30;99.90
11188;DHT22;5650;52.700;7.306;2022-11-11T00:04:00;10.30;99.90
11188;DHT22;5650;52.700;7.306;2022-11-11T00:06:29;10.30;99.90
11188;DHT22;5650;52.700;7.306;2022-11-11T00:08:59;10.30;99.90
11188;DHT22;5650;52.700;7.306;2022-11-11T00:11:38;10.30;99.90
11188;DHT22;5650;52.700;7.306;2022-11-11T00:16:33;10.20;99.90
11188;DHT22;5650;52.700;7.306;2022-11-11T00:19:14;10.20;99.90
11188;DHT22;5650;52.700;7.306;2022-11-11T00:22:02;10.20;99.90
11188;DHT22;5650;52.700;7.306;2022-11-11T00:24:47;10.20;99.90
11188;DHT22;5650;52.700;7.306;2022-11-11T00:27:39;10.20;99.90
11188;DHT22;5650;52.700;7.306;2022-11-11T00:30:08;10.10;99.90
11188;DHT22;5650;52.700;7.306;2022-11-11T00:32:35;10.10;99.90
11188;DHT22;5650;52.700;7.306;2022-11-11T00:35:10;10.10;99.90
11188;DHT22;5650;52.700;7.306;2022-11-11T00:38:06;10.10;99.90
11188;DHT22;5650;52.700;7.306;2022-11-11T00:40:41;10.10;99.90
11188;DHT22;5650;52.700;7.306;2022-11-11T00:43:10;10.10;99.90
11188;DHT22;5650;52.700;7.306;2022-11-11T00:45:42;10.10;99.90
11188;DHT22;5650;52.700;7.306;2022-11-11T00:48:15;10.00;99.90
11188;DHT22;5650;52.700;7.306;2022-11-11T00:51:00;10.00;99.90
11188;DHT22;5650;52.700;7.306;2022-11-11T00:53:30;10.00;99.90
11188;DHT22;5650;52.700;7.306;2022-11-11T00:56:08;10.00;99.90
11188;DHT22;5650;52.700;7.306;2022-11-11T00:58:38;10.00;99.90
11188;DHT22;5650;52.700;7.306;2022-11-11T01:01:11;10.00;99.90
11188;DHT22;5650;52.700;7.306;2022-11-11T01:03:44;10.00;99.90
11188;DHT22;5650;52.700;7.306;2022-11-11T01:06:12;10.00;99.90
11188;DHT22;5650;52.700;7.306;2022-11-11T01:08:41;9.90;99.90
11188;DHT22;5650;52.700;7.306;2022-11-11T01:11:22;9.90;99.90
11188;DHT22;5650;52.700;7.306;2022-11-11T01:13:52;9.90;99.90
11188;DHT22;5650;52.700;7.306;2022-11-11T01:16:26;9.90;99.90
11188;DHT22;5650;52.700;7.306;2022-11-11T01:18:54;9.90;99.90
11188;DHT22;5650;52.700;7.306;2022-11-11T01:21:23;9.90;99.90
11188;DHT22;5650;52.700;7.306;2022-11-11T01:23:52;9.90;99.90
11188;DHT22;5650;52.700;7.306;2022-11-11T01:26:21;9.90;99.90
11188;DHT22;5650;52.700;7.306;2022-11-11T01:28:54;9.90;99.90
11188;DHT22;5650;52.700;7.306;2022-11-11T01:31:25;9.90;99.90
11188;DHT22;5650;52.700;7.306;2022-11-11T01:33:52;9.80;99.90
11188;DHT22;5650;52.700;7.306;2022-11-11T01:36:21;9.80;99.90
11188;DHT22;5650;52.700;7.306;2022-11-11T01:38:49;9.80;99.90
11188;DHT22;5650;52.700;7.306;2022-11-11T01:41:23;9.80;99.90
11188;DHT22;5650;52.700;7.306;2022-11-11T01:44:18;9.80;99.90
11188;DHT22;5650;52.700;7.306;2022-11-11T01:46:51;9.80;99.90
11188;DHT22;5650;52.700;7.306;2022-11-11T01:49:28;9.80;99.90
11188;DHT22;5650;52.700;7.306;2022-11-11T01:52:02;9.80;99.90
11188;DHT22;5650;52.700;7.306;2022-11-11T01:54:37;9.80;99.90
11188;DHT22;5650;52.700;7.306;2022-11-11T01:57:10;9.70;99.90
11188;DHT22;5650;52.700;7.306;2022-11-11T01:59:53;9.70;99.90
11188;DHT22;5650;52.700;7.306;2022-11-11T02:02:37;9.70;99.90
11188;DHT22;5650;52.700;7.306;2022-11-11T02:05:08;9.70;99.90
11188;DHT22;5650;52.700;7.306;2022-11-11T02:07:57;9.70;99.90
11188;DHT22;5650;52.700;7.306;2022-11-11T02:10:30;9.70;99.90
11188;DHT22;5650;52.700;7.306;2022-11-11T02:12:59;9.70;99.90
11188;DHT22;5650;52.700;7.306;2022-11-11T02:15:49;9.70;99.90
11188;DHT22;5650;52.700;7.306;2022-11-11T02:18:19;9.70;99.90
11188;DHT22;5650;52.700;7.306;2022-11-11T02:20:54;9.70;99.90
11188;DHT22;5650;52.700;7.306;2022-11-11T02:23:29;9.70;99.90
11188;DHT22;5650;52.700;7.306;2022-11-11T02:26:01;9.60;99.90
11188;DHT22;5650;52.700;7.306;2022-11-11T02:28:31;9.60;99.90
11188;DHT22;5650;52.700;7.306;2022-11-11T02:31:02;9.60;99.90
11188;DHT22;5650;52.700;7.306;2022-11-11T02:33:29;9.60;99.90
11188;DHT22;5650;52.700;7.306;2022-11-11T02:36:05;9.60;99.90
11188;DHT22;5650;52.700;7.306;2022-11-11T02:38:42;9.60;99.90
11188;DHT22;5650;52.700;7.306;2022-11-11T02:41:14;9.70;99.90
11188;DHT22;5650;52.700;7.306;2022-11-11T02:44:01;9.70;99.90
11188;DHT22;5650;52.700;7.306;2022-11-11T02:46:28;9.70;99.90
11188;DHT22;5650;52.700;7.306;2022-11-11T02:49:02;9.70;99.90
11188;DHT22;5650;52.700;7.306;2022-11-11T02:51:29;9.70;99.90
11188;DHT22;5650;52.700;7.306;2022-11-11T02:53:56;9.70;99.90
11188;DHT22;5650;52.700;7.306;2022-11-11T02:56:29;9.70;99.90
11188;DHT22;5650;52.700;7.306;2022-11-11T02:59:14;9.70;99.90
11188;DHT22;5650;52.700;7.306;2022-11-11T03:01:41;9.80;99.90
11188;DHT22;5650;52.700;7.306;2022-11-11T03:04:08;9.80;99.90
11188;DHT22;5650;52.700;7.306;2022-11-11T03:06:35;9.80;99.90
11188;DHT22;5650;52.700;7.306;2022-11-11T03:09:05;9.80;99.90
11188;DHT22;5650;52.700;7.306;2022-11-11T03:11:37;9.90;99.90
11188;DHT22;5650;52.700;7.306;2022-11-11T03:14:04;9.90;99.90
11188;DHT22;5650;52.700;7.306;2022-11-11T03:16:48;9.90;99.90
11188;DHT22;5650;52.700;7.306;2022-11-11T03:19:36;10.00;99.90
11188;DHT22;5650;52.700;7.306;2022-11-11T03:22:06;9.90;99.90
11188;DHT22;5650;52.700;7.306;2022-11-11T03:24:35;10.00;99.90
11188;DHT22;5650;52.700;7.306;2022-11-11T03:27:24;10.00;99.90
11188;DHT22;5650;52.700;7.306;2022-11-11T03:30:07;10.00;99.90
11188;DHT22;5650;52.700;7.306;2022-11-11T03:32:34;10.00;99.90
11188;DHT22;5650;52.700;7.306;2022-11-11T03:35:12;10.10;99.90
11188;DHT22;5650;52.700;7.306;2022-11-11T03:37:45;10.10;99.90
11188;DHT22;5650;52.700;7.306;2022-11-11T03:40:30;10.10;99.90
11188;DHT22;5650;52.700;7.306;2022-11-11T03:43:02;10.10;99.90
11188;DHT22;5650;52.700;7.306;2022-11-11T03:45:29;10.10;99.90
11188;DHT22;5650;52.700;7.306;2022-11-11T03:47:57;10.10;99.90
11188;DHT22;5650;52.700;7.306;2022-11-11T03:50:27;10.10;99.90
11188;DHT22;5650;52.700;7.306;2022-11-11T03:52:55;10.20;99.90
11188;DHT22;5650;52.700;7.306;2022-11-11T03:55:25;10.10;99.90
11188;DHT22;5650;52.700;7.306;2022-11-11T03:57:52;10.20;99.90
11188;DHT22;5650;52.700;7.306;2022-11-11T04:00:23;10.20;99.90
11188;DHT22;5650;52.700;7.306;2022-11-11T04:03:01;10.20;99.90
11188;DHT22;5650;52.700;7.306;2022-11-11T04:05:46;10.20;99.90
11188;DHT22;5650;52.700;7.306;2022-11-11T04:08:31;10.30;99.90
11188;DHT22;5650;52.700;7.306;2022-11-11T04:11:20;10.30;99.90
11188;DHT22;5650;52.700;7.306;2022-11-11T04:13:51;10.30;99.90
11188;DHT22;5650;52.700;7.306;2022-11-11T04:16:41;10.30;99.90
11188;DHT22;5650;52.700;7.306;2022-11-11T04:19:08;10.30;99.90
11188;DHT22;5650;52.700;7.306;2022-11-11T04:21:53;10.30;99.90
11188;DHT22;5650;52.700;7.306;2022-11-11T04:24:23;10.30;99.90
11188;DHT22;5650;52.700;7.306;2022-11-11T04:27:09;10.30;99.90
11188;DHT22;5650;52.700;7.306;2022-11-11T04:29:37;10.30;99.90
11188;DHT22;5650;52.700;7.306;2022-11-11T04:32:12;10.30;99.90
11188;DHT22;5650;52.700;7.306;2022-11-11T04:35:02;10.30;99.90
11188;DHT22;5650;52.700;7.306;2022-11-11T04:37:31;10.30;99.90
11188;DHT22;5650;52.700;7.306;2022-11-11T04:40:01;10.30;99.90
11188;DHT22;5650;52.700;7.306;2022-11-11T04:42:54;10.30;99.90
11188;DHT22;5650;52.700;7.306;2022-11-11T04:45:24;10.30;99.90
11188;DHT22;5650;52.700;7.306;2022-11-11T04:47:59;10.30;99.90
11188;DHT22;5650;52.700;7.306;2022-11-11T04:50:28;10.30;99.90
11188;DHT22;5650;52.700;7.306;2022-11-11T04:52:56;10.40;99.90
11188;DHT22;5650;52.700;7.306;2022-11-11T04:55:29;10.40;99.90
11188;DHT22;5650;52.700;7.306;2022-11-11T04:58:14;10.40;99.90
11188;DHT22;5650;52.700;7.306;2022-11-11T05:00:45;10.40;99.90
11188;DHT22;5650;52.700;7.306;2022-11-11T05:03:14;10.40;99.90
11188;DHT22;5650;52.700;7.306;2022-11-11T05:05:42;10.40;99.90
11188;DHT22;5650;52.700;7.306;2022-11-11T05:08:27;10.50;99.90
11188;DHT22;5650;52.700;7.306;2022-11-11T05:11:11;10.40;99.90
11188;DHT22;5650;52.700;7.306;2022-11-11T05:13:38;10.50;99.90
11188;DHT22;5650;52.700;7.306;2022-11-11T05:16:30;10.50;99.90
11188;DHT22;5650;52.700;7.306;2022-11-11T05:19:19;10.50;99.90
11188;DHT22;5650;52.700;7.306;2022-11-11T05:22:08;10.50;99.90
11188;DHT22;5650;52.700;7.306;2022-11-11T05:24:37;10.50;99.90
11188;DHT22;5650;52.700;7.306;2022-11-11T05:27:22;10.50;99.90
11188;DHT22;5650;52.700;7.306;2022-11-11T05:29:49;10.50;99.90
11188;DHT22;5650;52.700;7.306;2022-11-11T05:32:17;10.50;99.90
11188;DHT22;5650;52.700;7.306;2022-11-11T05:34:46;10.50;99.90
11188;DHT22;5650;52.700;7.306;2022-11-11T05:37:13;10.50;99.90
11188;DHT22;5650;52.700;7.306;2022-11-11T05:39:40;10.50;99.90
11188;DHT22;5650;52.700;7.306;2022-11-11T05:42:08;10.50;99.90
11188;DHT22;5650;52.700;7.306;2022-11-11T05:44:35;10.50;99.90
11188;DHT22;5650;52.700;7.306;2022-11-11T05:47:03;10.50;99.90
11188;DHT22;5650;52.700;7.306;2022-11-11T05:49:31;10.50;99.90
11188;DHT22;5650;52.700;7.306;2022-11-11T05:51:59;10.50;99.90
11188;DHT22;5650;52.700;7.306;2022-11-11T05:54:27;10.50;99.90
11188;DHT22;5650;52.700;7.306;2022-11-11T05:56:54;10.50;99.90
11188;DHT22;5650;52.700;7.306;2022-11-11T05:59:21;10.50;99.90
11188;DHT22;5650;52.700;7.306;2022-11-11T06:01:48;10.40;99.90
11188;DHT22;5650;52.700;7.306;2022-11-11T06:04:15;10.50;99.90
11188;DHT22;5650;52.700;7.306;2022-11-11T06:06:43;10.50;99.90
11188;DHT22;5650;52.700;7.306;2022-11-11T06:09:13;10.50;99.90
11188;DHT22;5650;52.700;7.306;2022-11-11T06:11:41;10.50;99.90
11188;DHT22;5650;52.700;7.306;2022-11-11T06:14:08;10.50;99.90
11188;DHT22;5650;52.700;7.306;2022-11-11T06:16:35;10.50;99.90
11188;DHT22;5650;52.700;7.306;2022-11-11T06:19:02;10.50;99.90
11188;DHT22;5650;52.700;7.306;2022-11-11T06:21:30;10.50;99.90
11188;DHT22;5650;52.700;7.306;2022-11-11T06:24:22;10.50;99.90
11188;DHT22;5650;52.700;7.306;2022-11-11T06:26:56;10.40;99.90
11188;DHT22;5650;52.700;7.306;2022-11-11T06:29:27;10.40;99.90
11188;DHT22;5650;52.700;7.306;2022-11-11T06:31:54;10.40;99.90
11188;DHT22;5650;52.700;7.306;2022-11-11T06:34:24;10.50;99.90
11188;DHT22;5650;52.700;7.306;2022-11-11T06:36:57;10.50;99.90
11188;DHT22;5650;52.700;7.306;2022-11-11T06:39:32;10.40;99.90
11188;DHT22;5650;52.700;7.306;2022-11-11T06:41:59;10.50;99.90
11188;DHT22;5650;52.700;7.306;2022-11-11T06:44:26;10.50;99.90
11188;DHT22;5650;52.700;7.306;2022-11-11T06:47:02;10.50;99.90
11188;DHT22;5650;52.700;7.306;2022-11-11T06:49:35;10.50;99.90
11188;DHT22;5650;52.700;7.306;2022-11-11T06:52:03;10.50;99.90
11188;DHT22;5650;52.700;7.306;2022-11-11T06:54:32;10.50;99.90
11188;DHT22;5650;52.700;7.306;2022-11-11T06:57:08;10.50;99.90
11188;DHT22;5650;52.700;7.306;2022-11-11T06:59:35;10.50;99.90
11188;DHT22;5650;52.700;7.306;2022-11-11T07:02:08;10.50;99.90
11188;DHT22;5650;52.700;7.306;2022-11-11T07:04:38;10.50;99.90
11188;DHT22;5650;52.700;7.306;2022-11-11T07:07:14;10.50;99.90
11188;DHT22;5650;52.700;7.306;2022-11-11T07:09:49;10.50;99.90
11188;DHT22;5650;52.700;7.306;2022-11-11T07:12:20;10.50;99.90
11188;DHT22;5650;52.700;7.306;2022-11-11T07:14:56;10.50;99.90
11188;DHT22;5650;52.700;7.306;2022-11-11T07:17:26;10.50;99.90
11188;DHT22;5650;52.700;7.306;2022-11-11T07:20:06;10.50;99.90
11188;DHT22;5650;52.700;7.306;2022-11-11T07:22:39;10.50;99.90
11188;DHT22;5650;52.700;7.306;2022-11-11T07:25:08;10.50;99.90
11188;DHT22;5650;52.700;7.306;2022-11-11T07:27:36;10.50;99.90
11188;DHT22;5650;52.700;7.306;2022-11-11T07:30:05;10.50;99.90
11188;DHT22;5650;52.700;7.306;2022-11-11T07:32:32;10.50;99.90
11188;DHT22;5650;52.700;7.306;2022-11-11T07:35:09;10.50;99.90
11188;DHT22;5650;52.700;7.306;2022-11-11T07:37:39;10.60;99.90
11188;DHT22;5650;52.700;7.306;2022-11-11T07:40:13;10.60;99.90
11188;DHT22;5650;52.700;7.306;2022-11-11T07:42:41;10.60;99.90
11188;DHT22;5650;52.700;7.306;2022-11-11T07:45:10;10.60;99.90
11188;DHT22;5650;52.700;7.306;2022-11-11T07:47:38;10.60;99.90
11188;DHT22;5650;52.700;7.306;2022-11-11T07:50:06;10.60;99.90
11188;DHT22;5650;52.700;7.306;2022-11-11T07:52:47;10.60;99.90
11188;DHT22;5650;52.700;7.306;2022-11-11T07:55:16;10.60;99.90
11188;DHT22;5650;52.700;7.306;2022-11-11T07:57:43;10.60;99.90
11188;DHT22;5650;52.700;7.306;2022-11-11T08:00:11;10.60;99.90
11188;DHT22;5650;52.700;7.306;2022-11-11T08:02:45;10.60;99.90
11188;DHT22;5650;52.700;7.306;2022-11-11T08:05:18;10.60;99.90
11188;DHT22;5650;52.700;7.306;2022-11-11T08:07:48;10.60;99.90
11188;DHT22;5650;52.700;7.306;2022-11-11T08:10:26;10.60;99.90
11188;DHT22;5650;52.700;7.306;2022-11-11T08:13:07;10.60;99.90
11188;DHT22;5650;52.700;7.306;2022-11-11T08:15:54;10.60;99.90
11188;DHT22;5650;52.700;7.306;2022-11-11T08:18:28;10.60;99.90
11188;DHT22;5650;52.700;7.306;2022-11-11T08:21:04;10.60;99.90
11188;DHT22;5650;52.700;7.306;2022-11-11T08:23:31;10.60;99.90
11188;DHT22;5650;52.700;7.306;2022-11-11T08:26:04;10.50;99.90
11188;DHT22;5650;52.700;7.306;2022-11-11T08:28:33;10.60;99.90
11188;DHT22;5650;52.700;7.306;2022-11-11T08:31:01;10.60;99.90
11188;DHT22;5650;52.700;7.306;2022-11-11T08:33:35;10.60;99.90
11188;DHT22;5650;52.700;7.306;2022-11-11T08:36:14;10.60;99.90
11188;DHT22;5650;52.700;7.306;2022-11-11T08:38:44;10.60;99.90
11188;DHT22;5650;52.700;7.306;2022-11-11T08:41:13;10.50;99.90
11188;DHT22;5650;52.700;7.306;2022-11-11T08:43:50;10.50;99.90
11188;DHT22;5650;52.700;7.306;2022-11-11T08:46:21;10.50;99.90
11188;DHT22;5650;52.700;7.306;2022-11-11T08:48:50;10.60;99.90
11188;DHT22;5650;52.700;7.306;2022-11-11T08:51:20;10.60;99.90
11188;DHT22;5650;52.700;7.306;2022-11-11T08:53:51;10.60;99.90
11188;DHT22;5650;52.700;7.306;2022-11-11T08:56:25;10.60;99.90
11188;DHT22;5650;52.700;7.306;2022-11-11T08:58:53;10.60;99.90
11188;DHT22;5650;52.700;7.306;2022-11-11T09:01:20;10.60;99.90
11188;DHT22;5650;52.700;7.306;2022-11-11T09:03:55;10.70;99.90
11188;DHT22;5650;52.700;7.306;2022-11-11T09:06:29;10.70;99.90
11188;DHT22;5650;52.700;7.306;2022-11-11T09:08:59;10.80;99.90
11188;DHT22;5650;52.700;7.306;2022-11-11T09:11:31;10.80;99.90
11188;DHT22;5650;52.700;7.306;2022-11-11T09:14:12;10.80;99.90
11188;DHT22;5650;52.700;7.306;2022-11-11T09:16:42;10.80;99.90
11188;DHT22;5650;52.700;7.306;2022-11-11T09:19:10;10.80;99.90
11188;DHT22;5650;52.700;7.306;2022-11-11T09:21:39;10.80;99.90
11188;DHT22;5650;52.700;7.306;2022-11-11T09:24:12;10.90;99.90
11188;DHT22;5650;52.700;7.306;2022-11-11T09:26:46;10.90;99.90
11188;DHT22;5650;52.700;7.306;2022-11-11T09:29:17;10.90;99.90
11188;DHT22;5650;52.700;7.306;2022-11-11T09:31:44;11.00;99.90
11188;DHT22;5650;52.700;7.306;2022-11-11T09:34:16;11.10;99.90
11188;DHT22;5650;52.700;7.306;2022-11-11T09:36:45;11.20;99.90
11188;DHT22;5650;52.700;7.306;2022-11-11T09:39:17;11.20;99.90
11188;DHT22;5650;52.700;7.306;2022-11-11T09:41:55;11.20;99.90
11188;DHT22;5650;52.700;7.306;2022-11-11T09:44:39;11.30;99.90
11188;DHT22;5650;52.700;7.306;2022-11-11T09:47:20;11.30;99.90
11188;DHT22;5650;52.700;7.306;2022-11-11T09:50:02;11.30;99.90
11188;DHT22;5650;52.700;7.306;2022-11-11T09:52:37;11.40;99.90
11188;DHT22;5650;52.700;7.306;2022-11-11T09:55:18;11.40;99.90
11188;DHT22;5650;52.700;7.306;2022-11-11T09:58:04;11.50;99.90
11188;DHT22;5650;52.700;7.306;2022-11-11T10:00:35;11.50;99.90
11188;DHT22;5650;52.700;7.306;2022-11-11T10:03:07;11.50;99.90
11188;DHT22;5650;52.700;7.306;2022-11-11T10:05:41;11.60;99.90
11188;DHT22;5650;52.700;7.306;2022-11-11T10:08:15;11.70;99.90
11188;DHT22;5650;52.700;7.306;2022-11-11T10:10:45;11.70;99.90
11188;DHT22;5650;52.700;7.306;2022-11-11T10:13:29;11.80;99.90
11188;DHT22;5650;52.700;7.306;2022-11-11T10:16:03;11.80;99.90
11188;DHT22;5650;52.700;7.306;2022-11-11T10:18:48;11.90;99.90
11188;DHT22;5650;52.700;7.306;2022-11-11T10:21:23;12.00;99.90
11188;DHT22;5650;52.700;7.306;2022-11-11T10:24:05;12.10;99.90
11188;DHT22;5650;52.700;7.306;2022-11-11T10:26:45;12.10;99.90
11188;DHT22;5650;52.700;7.306;2022-11-11T10:29:18;12.20;99.90
11188;DHT22;5650;52.700;7.306;2022-11-11T10:31:50;12.20;99.90
11188;DHT22;5650;52.700;7.306;2022-11-11T10:34:20;12.20;99.90
11188;DHT22;5650;52.700;7.306;2022-11-11T10:37:00;12.30;99.90
11188;DHT22;5650;52.700;7.306;2022-11-11T10:39:49;12.30;99.90
11188;DHT22;5650;52.700;7.306;2022-11-11T10:42:18;12.30;99.90
11188;DHT22;5650;52.700;7.306;2022-11-11T10:44:47;12.40;99.90
11188;DHT22;5650;52.700;7.306;2022-11-11T10:47:18;12.50;99.90
11188;DHT22;5650;52.700;7.306;2022-11-11T10:49:57;12.50;99.90
11188;DHT22;5650;52.700;7.306;2022-11-11T10:52:33;12.50;99.90
11188;DHT22;5650;52.700;7.306;2022-11-11T10:55:26;12.50;99.90
11188;DHT22;5650;52.700;7.306;2022-11-11T10:57:59;12.60;99.90
11188;DHT22;5650;52.700;7.306;2022-11-11T11:00:32;12.60;99.90
11188;DHT22;5650;52.700;7.306;2022-11-11T11:03:06;12.70;99.90
11188;DHT22;5650;52.700;7.306;2022-11-11T11:05:44;12.70;99.90
11188;DHT22;5650;52.700;7.306;2022-11-11T11:08:18;12.70;99.90
11188;DHT22;5650;52.700;7.306;2022-11-11T11:10:48;12.80;99.90
11188;DHT22;5650;52.700;7.306;2022-11-11T11:13:22;12.80;99.90
11188;DHT22;5650;52.700;7.306;2022-11-11T11:15:58;12.80;99.90
11188;DHT22;5650;52.700;7.306;2022-11-11T11:18:28;12.80;99.90
11188;DHT22;5650;52.700;7.306;2022-11-11T11:21:04;12.80;99.90
11188;DHT22;5650;52.700;7.306;2022-11-11T11:23:45;12.90;99.90
11188;DHT22;5650;52.700;7.306;2022-11-11T11:26:14;12.90;99.90
11188;DHT22;5650;52.700;7.306;2022-11-11T11:29:02;12.90;99.90
11188;DHT22;5650;52.700;7.306;2022-11-11T11:31:51;13.00;99.90
11188;DHT22;5650;52.700;7.306;2022-11-11T11:34:21;13.00;99.90
11188;DHT22;5650;52.700;7.306;2022-11-11T11:37:01;13.00;99.90
11188;DHT22;5650;52.700;7.306;2022-11-11T11:39:32;13.10;99.90
11188;DHT22;5650;52.700;7.306;2022-11-11T11:42:00;13.10;99.90
11188;DHT22;5650;52.700;7.306;2022-11-11T11:44:39;13.20;99.90
11188;DHT22;5650;52.700;7.306;2022-11-11T11:47:27;13.20;99.90
11188;DHT22;5650;52.700;7.306;2022-11-11T11:50:11;13.20;99.90
11188;DHT22;5650;52.700;7.306;2022-11-11T11:52:51;13.30;99.90
11188;DHT22;5650;52.700;7.306;2022-11-11T11:55:27;13.30;99.90
11188;DHT22;5650;52.700;7.306;2022-11-11T11:58:19;13.30;99.90
11188;DHT22;5650;52.700;7.306;2022-11-11T12:00:56;13.30;99.90
11188;DHT22;5650;52.700;7.306;2022-11-11T12:06:35;13.30;99.90
11188;DHT22;5650;52.700;7.306;2022-11-11T12:09:12;13.40;99.90
11188;DHT22;5650;52.700;7.306;2022-11-11T12:11:53;13.40;99.90
11188;DHT22;5650;52.700;7.306;2022-11-11T12:14:39;13.50;99.90
11188;DHT22;5650;52.700;7.306;2022-11-11T12:17:25;13.50;99.90
11188;DHT22;5650;52.700;7.306;2022-11-11T12:20:13;13.50;99.90
11188;DHT22;5650;52.700;7.306;2022-11-11T12:22:59;13.50;99.90
11188;DHT22;5650;52.700;7.306;2022-11-11T12:25:38;13.50;99.90
11188;DHT22;5650;52.700;7.306;2022-11-11T12:28:30;13.50;99.90
11188;DHT22;5650;52.700;7.306;2022-11-11T12:31:05;13.50;99.90
11188;DHT22;5650;52.700;7.306;2022-11-11T12:34:05;13.60;99.90
11188;DHT22;5650;52.700;7.306;2022-11-11T12:36:53;13.60;99.90
11188;DHT22;5650;52.700;7.306;2022-11-11T12:39:47;13.60;99.90
11188;DHT22;5650;52.700;7.306;2022-11-11T12:42:31;13.60;99.90
11188;DHT22;5650;52.700;7.306;2022-11-11T12:45:17;13.60;99.90
11188;DHT22;5650;52.700;7.306;2022-11-11T12:47:55;13.60;99.90
11188;DHT22;5650;52.700;7.306;2022-11-11T12:50:29;13.60;99.90
11188;DHT22;5650;52.700;7.306;2022-11-11T12:53:19;13.70;99.90
11188;DHT22;5650;52.700;7.306;2022-11-11T12:55:59;13.60;99.90
11188;DHT22;5650;52.700;7.306;2022-11-11T12:58:36;13.60;99.90
11188;DHT22;5650;52.700;7.306;2022-11-11T13:01:16;13.60;99.90
11188;DHT22;5650;52.700;7.306;2022-11-11T13:04:14;13.60;99.90
11188;DHT22;5650;52.700;7.306;2022-11-11T13:06:55;13.70;99.90
11188;DHT22;5650;52.700;7.306;2022-11-11T13:09:42;13.60;99.90
11188;DHT22;5650;52.700;7.306;2022-11-11T13:12:17;13.60;99.90
11188;DHT22;5650;52.700;7.306;2022-11-11T13:15:01;13.60;99.90
11188;DHT22;5650;52.700;7.306;2022-11-11T13:17:30;13.60;99.90
11188;DHT22;5650;52.700;7.306;2022-11-11T13:20:05;13.60;99.90
11188;DHT22;5650;52.700;7.306;2022-11-11T13:22:37;13.60;99.90
11188;DHT22;5650;52.700;7.306;2022-11-11T13:25:10;13.70;99.90
11188;DHT22;5650;52.700;7.306;2022-11-11T13:27:46;13.70;99.90
11188;DHT22;5650;52.700;7.306;2022-11-11T13:30:42;13.70;99.90
11188;DHT22;5650;52.700;7.306;2022-11-11T13:33:18;13.70;99.90
11188;DHT22;5650;52.700;7.306;2022-11-11T13:35:50;13.70;99.90
11188;DHT22;5650;52.700;7.306;2022-11-11T13:38:43;13.70;99.90
11188;DHT22;5650;52.700;7.306;2022-11-11T13:41:19;13.70;99.90
11188;DHT22;5650;52.700;7.306;2022-11-11T13:44:03;13.70;99.90
11188;DHT22;5650;52.700;7.306;2022-11-11T13:46:38;13.70;99.90
11188;DHT22;5650;52.700;7.306;2022-11-11T13:49:08;13.70;99.90
11188;DHT22;5650;52.700;7.306;2022-11-11T13:51:40;13.70;99.90
11188;DHT22;5650;52.700;7.306;2022-11-11T13:54:22;13.70;99.90
11188;DHT22;5650;52.700;7.306;2022-11-11T13:56:53;13.70;99.90
11188;DHT22;5650;52.700;7.306;2022-11-11T13:59:36;13.70;99.90
11188;DHT22;5650;52.700;7.306;2022-11-11T14:02:37;13.70;99.90
11188;DHT22;5650;52.700;7.306;2022-11-11T14:05:27;13.70;99.90
11188;DHT22;5650;52.700;7.306;2022-11-11T14:07:55;13.70;99.90
11188;DHT22;5650;52.700;7.306;2022-11-11T14:10:52;13.70;99.90
11188;DHT22;5650;52.700;7.306;2022-11-11T14:13:39;13.70;99.90
11188;DHT22;5650;52.700;7.306;2022-11-11T14:19:28;13.60;99.90
11188;DHT22;5650;52.700;7.306;2022-11-11T14:21:58;13.60;99.90
11188;DHT22;5650;52.700;7.306;2022-11-11T14:24:32;13.60;99.90
11188;DHT22;5650;52.700;7.306;2022-11-11T14:27:02;13.60;99.90
11188;DHT22;5650;52.700;7.306;2022-11-11T14:29:36;13.60;99.90
11188;DHT22;5650;52.700;7.306;2022-11-11T14:32:39;13.50;99.90
11188;DHT22;5650;52.700;7.306;2022-11-11T14:35:20;13.50;99.90
11188;DHT22;5650;52.700;7.306;2022-11-11T14:38:21;13.40;99.90
11188;DHT22;5650;52.700;7.306;2022-11-11T14:40:52;13.40;99.90
11188;DHT22;5650;52.700;7.306;2022-11-11T14:43:37;13.40;99.90
11188;DHT22;5650;52.700;7.306;2022-11-11T14:46:10;13.30;99.90
11188;DHT22;5650;52.700;7.306;2022-11-11T14:49:07;13.30;99.90
11188;DHT22;5650;52.700;7.306;2022-11-11T14:51:53;13.20;99.90
11188;DHT22;5650;52.700;7.306;2022-11-11T14:54:35;13.20;99.90
11188;DHT22;5650;52.700;7.306;2022-11-11T14:57:20;13.10;99.90
11188;DHT22;5650;52.700;7.306;2022-11-11T14:59:48;13.10;99.90
11188;DHT22;5650;52.700;7.306;2022-11-11T15:02:28;13.00;99.90
11188;DHT22;5650;52.700;7.306;2022-11-11T15:04:57;13.00;99.90
11188;DHT22;5650;52.700;7.306;2022-11-11T15:07:35;12.90;99.90
11188;DHT22;5650;52.700;7.306;2022-11-11T15:10:19;12.80;99.90
11188;DHT22;5650;52.700;7.306;2022-11-11T15:15:48;12.70;99.90
11188;DHT22;5650;52.700;7.306;2022-11-11T15:18:35;12.60;99.90
11188;DHT22;5650;52.700;7.306;2022-11-11T15:21:11;12.60;99.90
11188;DHT22;5650;52.700;7.306;2022-11-11T15:23:44;12.50;99.90
11188;DHT22;5650;52.700;7.306;2022-11-11T15:26:19;12.50;99.90
11188;DHT22;5650;52.700;7.306;2022-11-11T15:29:04;12.40;99.90
11188;DHT22;5650;52.700;7.306;2022-11-11T15:31:37;12.30;99.90
11188;DHT22;5650;52.700;7.306;2022-11-11T15:34:22;12.30;99.90
11188;DHT22;5650;52.700;7.306;2022-11-11T15:36:54;12.20;99.90
11188;DHT22;5650;52.700;7.306;2022-11-11T15:39:24;12.10;99.90
11188;DHT22;5650;52.700;7.306;2022-11-11T15:41:53;12.00;99.90
11188;DHT22;5650;52.700;7.306;2022-11-11T15:44:23;12.00;99.90
11188;DHT22;5650;52.700;7.306;2022-11-11T15:46:51;12.00;99.90
11188;DHT22;5650;52.700;7.306;2022-11-11T15:49:40;11.90;99.90
11188;DHT22;5650;52.700;7.306;2022-11-11T15:52:24;11.80;99.90
11188;DHT22;5650;52.700;7.306;2022-11-11T15:54:55;11.80;99.90
11188;DHT22;5650;52.700;7.306;2022-11-11T15:57:25;11.70;99.90
11188;DHT22;5650;52.700;7.306;2022-11-11T15:59:53;11.70;99.90
11188;DHT22;5650;52.700;7.306;2022-11-11T16:02:23;11.60;99.90
11188;DHT22;5650;52.700;7.306;2022-11-11T16:04:55;11.60;99.90
11188;DHT22;5650;52.700;7.306;2022-11-11T16:07:26;11.50;99.90
11188;DHT22;5650;52.700;7.306;2022-11-11T16:09:57;11.50;99.90
11188;DHT22;5650;52.700;7.306;2022-11-11T16:12:29;11.40;99.90
11188;DHT22;5650;52.700;7.306;2022-11-11T16:14:59;11.40;99.90
11188;DHT22;5650;52.700;7.306;2022-11-11T16:17:29;11.40;99.90
11188;DHT22;5650;52.700;7.306;2022-11-11T16:20:01;11.30;99.90
11188;DHT22;5650;52.700;7.306;2022-11-11T16:22:31;11.30;99.90
11188;DHT22;5650;52.700;7.306;2022-11-11T16:25:02;11.20;99.90
11188;DHT22;5650;52.700;7.306;2022-11-11T16:27:31;11.20;99.90
11188;DHT22;5650;52.700;7.306;2022-11-11T16:30:15;11.20;99.90
11188;DHT22;5650;52.700;7.306;2022-11-11T16:32:43;11.10;99.90
11188;DHT22;5650;52.700;7.306;2022-11-11T16:35:30;11.10;99.90
11188;DHT22;5650;52.700;7.306;2022-11-11T16:37:58;11.10;99.90
11188;DHT22;5650;52.700;7.306;2022-11-11T16:40:36;11.00;99.90
11188;DHT22;5650;52.700;7.306;2022-11-11T16:43:18;11.00;99.90
11188;DHT22;5650;52.700;7.306;2022-11-11T16:45:48;11.00;99.90
11188;DHT22;5650;52.700;7.306;2022-11-11T16:51:24;10.90;99.90
11188;DHT22;5650;52.700;7.306;2022-11-11T16:54:10;10.80;99.90